sensor_id;sensor_type;location;lat;lon;timestamp;P1;durP1;ratioP1;P2;durP2;ratioP2
18887;SDS011;9576;47.792;9.628;2022-07-23T00:01:19;14.98;;;8.95;;
18887;SDS011;9576;47.792;9.628;2022-07-23T00:04:21;15.90;;;9.68;;
18887;SDS011;9576;47.792;9.628;2022-07-23T00:07:24;14.57;;;10.00;;
18887;SDS011;9576;47.792;9.628;2022-07-23T00:10:26;15.65;;;9.48;;
18887;SDS011;9576;47.792;9.628;2022-07-23T00:13:28;15.40;;;9.57;;
18887;SDS011;9576;47.792;9.628;2022-07-23T00:16:31;16.38;;;9.85;;
18887;SDS011;9576;47.792;9.628;2022-07-23T00:19:34;18.70;;;9.88;;
18887;SDS011;9576;47.792;9.628;2022-07-23T00:22:36;13.63;;;9.15;;
18887;SDS011;9576;47.792;9.628;2022-07-23T00:25:38;18.77;;;9.02;;
18887;SDS011;9576;47.792;9.628;2022-07-23T00:28:40;14.98;;;10.10;;
18887;SDS011;9576;47.792;9.628;2022-07-23T00:31:44;15.80;;;9.77;;
18887;SDS011;9576;47.792;9.628;2022-07-23T00:34:46;14.80;;;9.45;;
18887;SDS011;9576;47.792;9.628;2022-07-23T00:37:48;18.50;;;9.75;;
18887;SDS011;9576;47.792;9.628;2022-07-23T00:40:50;17.25;;;9.90;;
18887;SDS011;9576;47.792;9.628;2022-07-23T00:43:52;20.05;;;10.45;;
18887;SDS011;9576;47.792;9.628;2022-07-23T00:46:57;15.38;;;9.32;;
18887;SDS011;9576;47.792;9.628;2022-07-23T00:49:59;16.45;;;9.43;;
18887;SDS011;9576;47.792;9.628;2022-07-23T00:53:02;23.98;;;9.45;;
18887;SDS011;9576;47.792;9.628;2022-07-23T00:56:05;16.60;;;9.73;;
18887;SDS011;9576;47.792;9.628;2022-07-23T00:59:07;22.17;;;10.82;;
18887;SDS011;9576;47.792;9.628;2022-07-23T01:02:12;14.15;;;9.60;;
18887;SDS011;9576;47.792;9.628;2022-07-23T01:05:14;18.15;;;10.38;;
18887;SDS011;9576;47.792;9.628;2022-07-23T01:08:17;16.60;;;11.13;;
18887;SDS011;9576;47.792;9.628;2022-07-23T01:11:20;16.42;;;9.75;;
18887;SDS011;9576;47.792;9.628;2022-07-23T01:14:24;17.45;;;9.25;;
18887;SDS011;9576;47.792;9.628;2022-07-23T01:17:28;18.25;;;9.38;;
18887;SDS011;9576;47.792;9.628;2022-07-23T01:20:30;12.75;;;8.75;;
18887;SDS011;9576;47.792;9.628;2022-07-23T01:23:34;25.75;;;9.10;;
18887;SDS011;9576;47.792;9.628;2022-07-23T01:26:37;18.20;;;9.23;;
18887;SDS011;9576;47.792;9.628;2022-07-23T01:29:40;15.18;;;8.43;;
18887;SDS011;9576;47.792;9.628;2022-07-23T01:32:42;26.95;;;10.23;;
18887;SDS011;9576;47.792;9.628;2022-07-23T01:35:44;13.68;;;8.30;;
18887;SDS011;9576;47.792;9.628;2022-07-23T01:38:47;15.95;;;8.82;;
18887;SDS011;9576;47.792;9.628;2022-07-23T01:41:50;13.32;;;9.10;;
18887;SDS011;9576;47.792;9.628;2022-07-23T01:44:53;13.68;;;9.00;;
18887;SDS011;9576;47.792;9.628;2022-07-23T01:47:55;18.63;;;9.05;;
18887;SDS011;9576;47.792;9.628;2022-07-23T01:50:57;19.20;;;9.25;;
18887;SDS011;9576;47.792;9.628;2022-07-23T01:54:00;16.42;;;9.23;;
18887;SDS011;9576;47.792;9.628;2022-07-23T01:57:03;17.75;;;9.65;;
18887;SDS011;9576;47.792;9.628;2022-07-23T02:00:05;17.88;;;8.98;;
18887;SDS011;9576;47.792;9.628;2022-07-23T02:03:08;19.02;;;10.45;;
18887;SDS011;9576;47.792;9.628;2022-07-23T02:06:10;13.05;;;8.07;;
18887;SDS011;9576;47.792;9.628;2022-07-23T02:09:14;13.73;;;8.70;;
18887;SDS011;9576;47.792;9.628;2022-07-23T02:12:16;17.65;;;8.85;;
18887;SDS011;9576;47.792;9.628;2022-07-23T02:15:18;17.63;;;9.85;;
18887;SDS011;9576;47.792;9.628;2022-07-23T02:18:21;18.33;;;9.25;;
18887;SDS011;9576;47.792;9.628;2022-07-23T02:21:23;14.23;;;8.15;;
18887;SDS011;9576;47.792;9.628;2022-07-23T02:24:26;12.65;;;8.98;;
18887;SDS011;9576;47.792;9.628;2022-07-23T02:27:29;15.50;;;8.70;;
18887;SDS011;9576;47.792;9.628;2022-07-23T02:30:31;12.88;;;8.15;;
18887;SDS011;9576;47.792;9.628;2022-07-23T02:33:33;17.38;;;9.23;;
18887;SDS011;9576;47.792;9.628;2022-07-23T02:36:35;13.23;;;8.50;;
18887;SDS011;9576;47.792;9.628;2022-07-23T02:39:39;14.63;;;9.88;;
18887;SDS011;9576;47.792;9.628;2022-07-23T02:42:41;14.85;;;9.15;;
18887;SDS011;9576;47.792;9.628;2022-07-23T02:45:43;14.38;;;8.85;;
18887;SDS011;9576;47.792;9.628;2022-07-23T02:48:45;12.65;;;8.45;;
18887;SDS011;9576;47.792;9.628;2022-07-23T02:51:47;11.93;;;8.88;;
18887;SDS011;9576;47.792;9.628;2022-07-23T02:54:51;17.75;;;9.90;;
18887;SDS011;9576;47.792;9.628;2022-07-23T02:57:53;23.85;;;8.68;;
18887;SDS011;9576;47.792;9.628;2022-07-23T03:00:55;14.27;;;9.02;;
18887;SDS011;9576;47.792;9.628;2022-07-23T03:03:57;12.10;;;8.35;;
18887;SDS011;9576;47.792;9.628;2022-07-23T03:07:00;16.52;;;9.02;;
18887;SDS011;9576;47.792;9.628;2022-07-23T03:10:03;14.45;;;9.68;;
18887;SDS011;9576;47.792;9.628;2022-07-23T03:13:06;18.10;;;8.25;;
18887;SDS011;9576;47.792;9.628;2022-07-23T03:16:08;15.45;;;9.98;;
18887;SDS011;9576;47.792;9.628;2022-07-23T03:19:10;23.63;;;10.88;;
18887;SDS011;9576;47.792;9.628;2022-07-23T03:22:12;14.93;;;9.70;;
18887;SDS011;9576;47.792;9.628;2022-07-23T03:25:15;13.90;;;8.40;;
18887;SDS011;9576;47.792;9.628;2022-07-23T03:28:18;13.13;;;8.93;;
18887;SDS011;9576;47.792;9.628;2022-07-23T03:31:20;20.50;;;8.88;;
18887;SDS011;9576;47.792;9.628;2022-07-23T03:34:22;15.38;;;8.75;;
18887;SDS011;9576;47.792;9.628;2022-07-23T03:37:24;16.85;;;10.23;;
18887;SDS011;9576;47.792;9.628;2022-07-23T03:40:28;14.90;;;8.68;;
18887;SDS011;9576;47.792;9.628;2022-07-23T03:43:30;17.13;;;9.77;;
18887;SDS011;9576;47.792;9.628;2022-07-23T03:46:32;13.93;;;9.90;;
18887;SDS011;9576;47.792;9.628;2022-07-23T03:49:34;14.23;;;9.57;;
18887;SDS011;9576;47.792;9.628;2022-07-23T03:52:36;16.42;;;10.50;;
18887;SDS011;9576;47.792;9.628;2022-07-23T03:55:40;19.20;;;10.57;;
18887;SDS011;9576;47.792;9.628;2022-07-23T03:58:42;15.43;;;9.48;;
18887;SDS011;9576;47.792;9.628;2022-07-23T04:01:44;12.73;;;9.23;;
18887;SDS011;9576;47.792;9.628;2022-07-23T04:04:46;11.60;;;8.63;;
18887;SDS011;9576;47.792;9.628;2022-07-23T04:07:49;14.15;;;8.45;;
18887;SDS011;9576;47.792;9.628;2022-07-23T04:10:52;14.23;;;9.60;;
18887;SDS011;9576;47.792;9.628;2022-07-23T04:13:55;13.83;;;9.63;;
18887;SDS011;9576;47.792;9.628;2022-07-23T04:16:57;17.48;;;10.40;;
18887;SDS011;9576;47.792;9.628;2022-07-23T04:19:59;25.13;;;11.25;;
18887;SDS011;9576;47.792;9.628;2022-07-23T04:23:01;19.67;;;10.57;;
18887;SDS011;9576;47.792;9.628;2022-07-23T04:26:05;12.75;;;9.77;;
18887;SDS011;9576;47.792;9.628;2022-07-23T04:29:07;25.23;;;9.90;;
18887;SDS011;9576;47.792;9.628;2022-07-23T04:32:09;22.80;;;10.35;;
18887;SDS011;9576;47.792;9.628;2022-07-23T04:35:11;18.02;;;10.02;;
18887;SDS011;9576;47.792;9.628;2022-07-23T04:38:13;24.45;;;9.70;;
18887;SDS011;9576;47.792;9.628;2022-07-23T04:41:17;29.60;;;9.65;;
18887;SDS011;9576;47.792;9.628;2022-07-23T04:44:19;17.00;;;9.45;;
18887;SDS011;9576;47.792;9.628;2022-07-23T04:47:21;18.13;;;10.88;;
18887;SDS011;9576;47.792;9.628;2022-07-23T04:50:23;17.70;;;10.63;;
18887;SDS011;9576;47.792;9.628;2022-07-23T04:53:25;23.40;;;9.93;;
18887;SDS011;9576;47.792;9.628;2022-07-23T04:56:29;13.73;;;9.45;;
18887;SDS011;9576;47.792;9.628;2022-07-23T04:59:31;22.13;;;10.65;;
18887;SDS011;9576;47.792;9.628;2022-07-23T05:05:37;24.38;;;9.13;;
18887;SDS011;9576;47.792;9.628;2022-07-23T05:08:39;18.17;;;9.77;;
18887;SDS011;9576;47.792;9.628;2022-07-23T05:11:42;21.80;;;9.60;;
18887;SDS011;9576;47.792;9.628;2022-07-23T05:14:44;19.60;;;9.65;;
18887;SDS011;9576;47.792;9.628;2022-07-23T05:17:47;14.40;;;9.05;;
18887;SDS011;9576;47.792;9.628;2022-07-23T05:20:49;21.75;;;9.05;;
18887;SDS011;9576;47.792;9.628;2022-07-23T05:23:51;24.10;;;9.88;;
18887;SDS011;9576;47.792;9.628;2022-07-23T05:26:54;24.88;;;10.85;;
18887;SDS011;9576;47.792;9.628;2022-07-23T05:29:57;19.08;;;10.60;;
18887;SDS011;9576;47.792;9.628;2022-07-23T05:32:59;21.10;;;10.57;;
18887;SDS011;9576;47.792;9.628;2022-07-23T05:36:01;16.30;;;10.15;;
18887;SDS011;9576;47.792;9.628;2022-07-23T05:39:04;14.18;;;9.75;;
18887;SDS011;9576;47.792;9.628;2022-07-23T05:42:07;17.50;;;10.48;;
18887;SDS011;9576;47.792;9.628;2022-07-23T05:45:10;14.77;;;10.18;;
18887;SDS011;9576;47.792;9.628;2022-07-23T05:48:12;21.85;;;10.63;;
18887;SDS011;9576;47.792;9.628;2022-07-23T05:51:14;19.50;;;10.70;;
18887;SDS011;9576;47.792;9.628;2022-07-23T05:54:21;20.98;;;11.13;;
18887;SDS011;9576;47.792;9.628;2022-07-23T05:57:24;26.77;;;11.52;;
18887;SDS011;9576;47.792;9.628;2022-07-23T06:00:27;16.23;;;9.95;;
18887;SDS011;9576;47.792;9.628;2022-07-23T06:03:29;16.75;;;10.70;;
18887;SDS011;9576;47.792;9.628;2022-07-23T06:06:31;12.75;;;9.85;;
18887;SDS011;9576;47.792;9.628;2022-07-23T06:09:34;15.70;;;9.95;;
18887;SDS011;9576;47.792;9.628;2022-07-23T06:12:37;21.25;;;10.40;;
18887;SDS011;9576;47.792;9.628;2022-07-23T06:15:39;14.02;;;10.30;;
18887;SDS011;9576;47.792;9.628;2022-07-23T06:18:41;16.85;;;9.77;;
18887;SDS011;9576;47.792;9.628;2022-07-23T06:21:44;12.82;;;9.45;;
18887;SDS011;9576;47.792;9.628;2022-07-23T06:24:46;17.00;;;9.32;;
18887;SDS011;9576;47.792;9.628;2022-07-23T06:27:49;20.13;;;10.57;;
18887;SDS011;9576;47.792;9.628;2022-07-23T06:30:51;16.50;;;10.05;;
18887;SDS011;9576;47.792;9.628;2022-07-23T06:33:54;19.83;;;10.93;;
18887;SDS011;9576;47.792;9.628;2022-07-23T06:36:56;14.48;;;10.48;;
18887;SDS011;9576;47.792;9.628;2022-07-23T06:39:58;18.05;;;9.95;;
18887;SDS011;9576;47.792;9.628;2022-07-23T06:43:01;18.25;;;10.07;;
18887;SDS011;9576;47.792;9.628;2022-07-23T06:46:04;16.02;;;10.20;;
18887;SDS011;9576;47.792;9.628;2022-07-23T06:49:06;13.02;;;9.05;;
18887;SDS011;9576;47.792;9.628;2022-07-23T06:52:08;20.13;;;10.07;;
18887;SDS011;9576;47.792;9.628;2022-07-23T06:55:10;17.95;;;9.75;;
18887;SDS011;9576;47.792;9.628;2022-07-23T06:58:14;14.48;;;10.00;;
18887;SDS011;9576;47.792;9.628;2022-07-23T07:01:16;15.85;;;9.48;;
18887;SDS011;9576;47.792;9.628;2022-07-23T07:04:18;15.00;;;8.80;;
18887;SDS011;9576;47.792;9.628;2022-07-23T07:07:20;13.68;;;8.57;;
18887;SDS011;9576;47.792;9.628;2022-07-23T07:10:22;20.05;;;9.40;;
18887;SDS011;9576;47.792;9.628;2022-07-23T07:13:27;15.60;;;9.02;;
18887;SDS011;9576;47.792;9.628;2022-07-23T07:16:29;14.02;;;8.45;;
18887;SDS011;9576;47.792;9.628;2022-07-23T07:19:31;12.15;;;8.93;;
18887;SDS011;9576;47.792;9.628;2022-07-23T07:22:34;14.02;;;9.30;;
18887;SDS011;9576;47.792;9.628;2022-07-23T07:25:36;22.10;;;8.65;;
18887;SDS011;9576;47.792;9.628;2022-07-23T07:28:39;11.55;;;8.15;;
18887;SDS011;9576;47.792;9.628;2022-07-23T07:31:41;14.52;;;8.57;;
18887;SDS011;9576;47.792;9.628;2022-07-23T07:34:44;15.70;;;8.98;;
18887;SDS011;9576;47.792;9.628;2022-07-23T07:37:46;11.55;;;8.18;;
18887;SDS011;9576;47.792;9.628;2022-07-23T07:40:48;13.57;;;8.90;;
18887;SDS011;9576;47.792;9.628;2022-07-23T07:43:51;17.40;;;8.38;;
18887;SDS011;9576;47.792;9.628;2022-07-23T07:46:54;16.90;;;8.45;;
18887;SDS011;9576;47.792;9.628;2022-07-23T07:49:56;11.18;;;8.30;;
18887;SDS011;9576;47.792;9.628;2022-07-23T07:52:58;12.95;;;8.45;;
18887;SDS011;9576;47.792;9.628;2022-07-23T07:56:00;18.63;;;8.57;;
18887;SDS011;9576;47.792;9.628;2022-07-23T07:59:03;17.02;;;9.13;;
18887;SDS011;9576;47.792;9.628;2022-07-23T08:02:06;16.45;;;9.48;;
18887;SDS011;9576;47.792;9.628;2022-07-23T08:05:08;16.10;;;10.52;;
18887;SDS011;9576;47.792;9.628;2022-07-23T08:08:11;16.35;;;10.55;;
18887;SDS011;9576;47.792;9.628;2022-07-23T08:11:14;24.35;;;11.60;;
18887;SDS011;9576;47.792;9.628;2022-07-23T08:14:18;16.20;;;11.00;;
18887;SDS011;9576;47.792;9.628;2022-07-23T08:17:20;17.27;;;10.82;;
18887;SDS011;9576;47.792;9.628;2022-07-23T08:20:23;27.30;;;10.45;;
18887;SDS011;9576;47.792;9.628;2022-07-23T08:23:26;17.38;;;10.80;;
18887;SDS011;9576;47.792;9.628;2022-07-23T08:26:28;16.38;;;11.40;;
18887;SDS011;9576;47.792;9.628;2022-07-23T08:29:31;20.15;;;9.45;;
18887;SDS011;9576;47.792;9.628;2022-07-23T08:32:34;14.27;;;9.38;;
18887;SDS011;9576;47.792;9.628;2022-07-23T08:35:50;17.15;;;9.70;;
18887;SDS011;9576;47.792;9.628;2022-07-23T08:38:53;23.33;;;10.05;;
18887;SDS011;9576;47.792;9.628;2022-07-23T08:41:55;13.07;;;8.55;;
18887;SDS011;9576;47.792;9.628;2022-07-23T08:44:58;15.98;;;9.05;;
18887;SDS011;9576;47.792;9.628;2022-07-23T08:48:00;15.90;;;9.75;;
18887;SDS011;9576;47.792;9.628;2022-07-23T08:51:04;12.85;;;8.25;;
18887;SDS011;9576;47.792;9.628;2022-07-23T08:54:07;17.33;;;10.30;;
18887;SDS011;9576;47.792;9.628;2022-07-23T08:57:09;12.90;;;8.38;;
18887;SDS011;9576;47.792;9.628;2022-07-23T09:00:13;13.90;;;9.40;;
18887;SDS011;9576;47.792;9.628;2022-07-23T09:03:17;12.23;;;7.93;;
18887;SDS011;9576;47.792;9.628;2022-07-23T09:06:20;18.15;;;8.55;;
18887;SDS011;9576;47.792;9.628;2022-07-23T09:09:22;19.33;;;8.82;;
18887;SDS011;9576;47.792;9.628;2022-07-23T09:12:30;15.25;;;9.68;;
18887;SDS011;9576;47.792;9.628;2022-07-23T09:15:34;14.27;;;9.00;;
18887;SDS011;9576;47.792;9.628;2022-07-23T09:18:52;16.10;;;9.25;;
18887;SDS011;9576;47.792;9.628;2022-07-23T09:21:56;21.67;;;10.50;;
18887;SDS011;9576;47.792;9.628;2022-07-23T09:25:18;17.15;;;8.32;;
18887;SDS011;9576;47.792;9.628;2022-07-23T09:28:21;14.57;;;8.50;;
18887;SDS011;9576;47.792;9.628;2022-07-23T09:31:25;12.75;;;9.55;;
18887;SDS011;9576;47.792;9.628;2022-07-23T09:34:34;12.25;;;8.60;;
18887;SDS011;9576;47.792;9.628;2022-07-23T09:37:38;13.85;;;9.10;;
18887;SDS011;9576;47.792;9.628;2022-07-23T09:40:41;15.05;;;8.75;;
18887;SDS011;9576;47.792;9.628;2022-07-23T09:43:43;13.55;;;9.00;;
18887;SDS011;9576;47.792;9.628;2022-07-23T09:46:47;16.05;;;8.70;;
18887;SDS011;9576;47.792;9.628;2022-07-23T09:49:58;15.25;;;8.55;;
18887;SDS011;9576;47.792;9.628;2022-07-23T09:53:01;13.63;;;9.02;;
18887;SDS011;9576;47.792;9.628;2022-07-23T09:56:04;12.70;;;8.57;;
18887;SDS011;9576;47.792;9.628;2022-07-23T10:02:13;16.83;;;8.73;;
18887;SDS011;9576;47.792;9.628;2022-07-23T10:05:15;13.52;;;8.40;;
18887;SDS011;9576;47.792;9.628;2022-07-23T10:08:19;14.70;;;9.43;;
18887;SDS011;9576;47.792;9.628;2022-07-23T10:11:22;24.42;;;8.88;;
18887;SDS011;9576;47.792;9.628;2022-07-23T10:14:24;14.60;;;9.32;;
18887;SDS011;9576;47.792;9.628;2022-07-23T10:17:31;13.40;;;9.30;;
18887;SDS011;9576;47.792;9.628;2022-07-23T10:20:34;19.55;;;10.40;;
18887;SDS011;9576;47.792;9.628;2022-07-23T10:23:37;17.27;;;9.02;;
18887;SDS011;9576;47.792;9.628;2022-07-23T10:26:46;12.52;;;8.27;;
18887;SDS011;9576;47.792;9.628;2022-07-23T10:29:57;14.15;;;8.80;;
18887;SDS011;9576;47.792;9.628;2022-07-23T10:33:11;21.20;;;10.38;;
18887;SDS011;9576;47.792;9.628;2022-07-23T10:36:27;16.02;;;9.07;;
18887;SDS011;9576;47.792;9.628;2022-07-23T10:39:38;15.65;;;9.25;;
18887;SDS011;9576;47.792;9.628;2022-07-23T10:42:40;17.48;;;9.55;;
18887;SDS011;9576;47.792;9.628;2022-07-23T10:45:42;15.90;;;9.82;;
18887;SDS011;9576;47.792;9.628;2022-07-23T10:48:46;12.35;;;9.13;;
18887;SDS011;9576;47.792;9.628;2022-07-23T10:52:27;15.23;;;9.73;;
18887;SDS011;9576;47.792;9.628;2022-07-23T10:55:39;18.42;;;9.82;;
18887;SDS011;9576;47.792;9.628;2022-07-23T10:58:46;16.15;;;8.40;;
18887;SDS011;9576;47.792;9.628;2022-07-23T11:01:50;15.98;;;8.57;;
18887;SDS011;9576;47.792;9.628;2022-07-23T11:04:53;17.10;;;8.68;;
18887;SDS011;9576;47.792;9.628;2022-07-23T11:08:13;21.38;;;8.82;;
18887;SDS011;9576;47.792;9.628;2022-07-23T11:11:20;13.73;;;8.10;;
18887;SDS011;9576;47.792;9.628;2022-07-23T11:17:58;12.98;;;8.43;;
18887;SDS011;9576;47.792;9.628;2022-07-23T11:24:51;11.10;;;7.80;;
18887;SDS011;9576;47.792;9.628;2022-07-23T11:27:53;11.50;;;8.10;;
18887;SDS011;9576;47.792;9.628;2022-07-23T11:30:55;14.35;;;8.30;;
18887;SDS011;9576;47.792;9.628;2022-07-23T11:37:35;12.85;;;8.50;;
18887;SDS011;9576;47.792;9.628;2022-07-23T11:40:39;13.45;;;8.82;;
18887;SDS011;9576;47.792;9.628;2022-07-23T11:43:42;16.25;;;9.10;;
18887;SDS011;9576;47.792;9.628;2022-07-23T11:46:53;15.98;;;8.73;;
18887;SDS011;9576;47.792;9.628;2022-07-23T11:49:57;11.98;;;8.50;;
18887;SDS011;9576;47.792;9.628;2022-07-23T11:53:00;15.43;;;8.77;;
18887;SDS011;9576;47.792;9.628;2022-07-23T11:56:06;16.45;;;7.88;;
18887;SDS011;9576;47.792;9.628;2022-07-23T11:59:10;12.15;;;7.25;;
18887;SDS011;9576;47.792;9.628;2022-07-23T12:02:14;17.73;;;7.87;;
18887;SDS011;9576;47.792;9.628;2022-07-23T12:05:16;12.88;;;8.52;;
18887;SDS011;9576;47.792;9.628;2022-07-23T12:08:19;15.63;;;8.63;;
18887;SDS011;9576;47.792;9.628;2022-07-23T12:11:23;14.73;;;7.65;;
18887;SDS011;9576;47.792;9.628;2022-07-23T12:14:25;13.10;;;7.43;;
18887;SDS011;9576;47.792;9.628;2022-07-23T12:17:28;15.82;;;9.38;;
18887;SDS011;9576;47.792;9.628;2022-07-23T12:20:32;12.07;;;8.07;;
18887;SDS011;9576;47.792;9.628;2022-07-23T12:23:36;13.88;;;8.02;;
18887;SDS011;9576;47.792;9.628;2022-07-23T12:26:39;17.58;;;8.68;;
18887;SDS011;9576;47.792;9.628;2022-07-23T12:30:15;11.45;;;7.85;;
18887;SDS011;9576;47.792;9.628;2022-07-23T12:33:21;12.15;;;8.60;;
18887;SDS011;9576;47.792;9.628;2022-07-23T12:36:24;23.52;;;9.35;;
18887;SDS011;9576;47.792;9.628;2022-07-23T12:39:39;15.30;;;9.77;;
18887;SDS011;9576;47.792;9.628;2022-07-23T12:42:43;12.00;;;8.68;;
18887;SDS011;9576;47.792;9.628;2022-07-23T12:45:46;12.73;;;8.65;;
18887;SDS011;9576;47.792;9.628;2022-07-23T12:48:50;17.58;;;8.95;;
18887;SDS011;9576;47.792;9.628;2022-07-23T12:51:54;18.90;;;10.02;;
18887;SDS011;9576;47.792;9.628;2022-07-23T12:54:56;14.32;;;9.43;;
18887;SDS011;9576;47.792;9.628;2022-07-23T12:58:07;12.65;;;8.40;;
18887;SDS011;9576;47.792;9.628;2022-07-23T13:01:21;18.63;;;9.32;;
18887;SDS011;9576;47.792;9.628;2022-07-23T13:04:25;13.93;;;8.90;;
18887;SDS011;9576;47.792;9.628;2022-07-23T13:07:28;15.55;;;9.32;;
18887;SDS011;9576;47.792;9.628;2022-07-23T13:10:30;13.27;;;8.80;;
18887;SDS011;9576;47.792;9.628;2022-07-23T13:13:34;11.98;;;7.90;;
18887;SDS011;9576;47.792;9.628;2022-07-23T13:16:37;12.20;;;9.13;;
18887;SDS011;9576;47.792;9.628;2022-07-23T13:19:39;15.23;;;8.25;;
18887;SDS011;9576;47.792;9.628;2022-07-23T13:22:41;14.75;;;8.35;;
18887;SDS011;9576;47.792;9.628;2022-07-23T13:25:44;11.70;;;7.97;;
18887;SDS011;9576;47.792;9.628;2022-07-23T13:28:47;13.30;;;8.45;;
18887;SDS011;9576;47.792;9.628;2022-07-23T13:31:50;14.20;;;8.00;;
18887;SDS011;9576;47.792;9.628;2022-07-23T13:34:52;14.30;;;7.70;;
18887;SDS011;9576;47.792;9.628;2022-07-23T13:37:55;13.60;;;8.45;;
18887;SDS011;9576;47.792;9.628;2022-07-23T13:40:57;13.25;;;8.48;;
18887;SDS011;9576;47.792;9.628;2022-07-23T13:44:01;14.25;;;8.10;;
18887;SDS011;9576;47.792;9.628;2022-07-23T13:47:03;11.07;;;7.70;;
18887;SDS011;9576;47.792;9.628;2022-07-23T13:50:05;10.55;;;8.05;;
18887;SDS011;9576;47.792;9.628;2022-07-23T13:53:09;11.43;;;7.25;;
18887;SDS011;9576;47.792;9.628;2022-07-23T13:56:12;10.30;;;7.47;;
18887;SDS011;9576;47.792;9.628;2022-07-23T13:59:16;12.65;;;7.15;;
18887;SDS011;9576;47.792;9.628;2022-07-23T14:02:18;11.02;;;8.38;;
18887;SDS011;9576;47.792;9.628;2022-07-23T14:05:20;18.00;;;7.25;;
18887;SDS011;9576;47.792;9.628;2022-07-23T14:08:22;13.95;;;7.07;;
18887;SDS011;9576;47.792;9.628;2022-07-23T14:11:25;13.02;;;7.38;;
18887;SDS011;9576;47.792;9.628;2022-07-23T14:14:29;12.68;;;8.40;;
18887;SDS011;9576;47.792;9.628;2022-07-23T14:17:32;16.27;;;8.05;;
18887;SDS011;9576;47.792;9.628;2022-07-23T14:20:34;10.43;;;7.00;;
18887;SDS011;9576;47.792;9.628;2022-07-23T14:23:37;13.98;;;7.55;;
18887;SDS011;9576;47.792;9.628;2022-07-23T14:26:39;11.90;;;7.15;;
18887;SDS011;9576;47.792;9.628;2022-07-23T14:29:42;9.63;;;7.53;;
18887;SDS011;9576;47.792;9.628;2022-07-23T14:32:45;11.63;;;7.53;;
18887;SDS011;9576;47.792;9.628;2022-07-23T14:35:47;11.57;;;7.95;;
18887;SDS011;9576;47.792;9.628;2022-07-23T14:38:49;10.65;;;6.85;;
18887;SDS011;9576;47.792;9.628;2022-07-23T14:41:51;10.57;;;7.70;;
18887;SDS011;9576;47.792;9.628;2022-07-23T14:44:55;10.55;;;7.35;;
18887;SDS011;9576;47.792;9.628;2022-07-23T14:47:57;8.30;;;6.97;;
18887;SDS011;9576;47.792;9.628;2022-07-23T14:50:59;8.93;;;6.28;;
18887;SDS011;9576;47.792;9.628;2022-07-23T14:54:01;11.57;;;6.90;;
18887;SDS011;9576;47.792;9.628;2022-07-23T14:57:04;13.18;;;7.50;;
18887;SDS011;9576;47.792;9.628;2022-07-23T15:00:10;9.93;;;6.95;;
18887;SDS011;9576;47.792;9.628;2022-07-23T15:03:13;12.20;;;7.05;;
18887;SDS011;9576;47.792;9.628;2022-07-23T15:06:15;12.32;;;6.70;;
18887;SDS011;9576;47.792;9.628;2022-07-23T15:09:17;10.48;;;7.72;;
18887;SDS011;9576;47.792;9.628;2022-07-23T15:12:20;10.85;;;7.05;;
18887;SDS011;9576;47.792;9.628;2022-07-23T15:15:23;12.57;;;6.93;;
18887;SDS011;9576;47.792;9.628;2022-07-23T15:18:26;9.95;;;7.50;;
18887;SDS011;9576;47.792;9.628;2022-07-23T15:21:28;11.82;;;7.70;;
18887;SDS011;9576;47.792;9.628;2022-07-23T15:24:31;8.10;;;6.47;;
18887;SDS011;9576;47.792;9.628;2022-07-23T15:27:33;12.65;;;6.75;;
18887;SDS011;9576;47.792;9.628;2022-07-23T15:30:37;9.98;;;7.05;;
18887;SDS011;9576;47.792;9.628;2022-07-23T15:33:39;13.23;;;7.85;;
18887;SDS011;9576;47.792;9.628;2022-07-23T15:36:41;13.48;;;7.32;;
18887;SDS011;9576;47.792;9.628;2022-07-23T15:39:45;9.13;;;6.75;;
18887;SDS011;9576;47.792;9.628;2022-07-23T15:42:47;9.90;;;6.95;;
18887;SDS011;9576;47.792;9.628;2022-07-23T15:45:51;11.70;;;7.00;;
18887;SDS011;9576;47.792;9.628;2022-07-23T15:48:54;12.75;;;7.22;;
18887;SDS011;9576;47.792;9.628;2022-07-23T15:51:56;11.32;;;6.80;;
18887;SDS011;9576;47.792;9.628;2022-07-23T15:54:58;17.95;;;9.02;;
18887;SDS011;9576;47.792;9.628;2022-07-23T15:58:00;9.60;;;6.97;;
18887;SDS011;9576;47.792;9.628;2022-07-23T16:01:04;12.40;;;6.40;;
18887;SDS011;9576;47.792;9.628;2022-07-23T16:04:07;10.60;;;6.75;;
18887;SDS011;9576;47.792;9.628;2022-07-23T16:07:09;16.65;;;8.63;;
18887;SDS011;9576;47.792;9.628;2022-07-23T16:10:11;11.77;;;6.70;;
18887;SDS011;9576;47.792;9.628;2022-07-23T16:13:13;12.05;;;7.25;;
18887;SDS011;9576;47.792;9.628;2022-07-23T16:16:17;12.55;;;7.43;;
18887;SDS011;9576;47.792;9.628;2022-07-23T16:19:19;8.90;;;6.25;;
18887;SDS011;9576;47.792;9.628;2022-07-23T16:22:21;8.82;;;6.60;;
18887;SDS011;9576;47.792;9.628;2022-07-23T16:25:23;9.55;;;6.47;;
18887;SDS011;9576;47.792;9.628;2022-07-23T16:28:26;8.32;;;6.50;;
18887;SDS011;9576;47.792;9.628;2022-07-23T16:31:29;9.82;;;6.63;;
18887;SDS011;9576;47.792;9.628;2022-07-23T16:34:32;11.93;;;7.32;;
18887;SDS011;9576;47.792;9.628;2022-07-23T16:37:34;9.80;;;7.15;;
18887;SDS011;9576;47.792;9.628;2022-07-23T16:40:37;8.85;;;6.30;;
18887;SDS011;9576;47.792;9.628;2022-07-23T16:43:39;9.50;;;6.32;;
18887;SDS011;9576;47.792;9.628;2022-07-23T16:46:42;11.27;;;7.20;;
18887;SDS011;9576;47.792;9.628;2022-07-23T16:49:44;13.13;;;7.27;;
18887;SDS011;9576;47.792;9.628;2022-07-23T16:52:47;22.15;;;8.45;;
18887;SDS011;9576;47.792;9.628;2022-07-23T16:55:49;14.35;;;6.70;;
18887;SDS011;9576;47.792;9.628;2022-07-23T16:58:52;9.80;;;7.15;;
18887;SDS011;9576;47.792;9.628;2022-07-23T17:01:56;9.32;;;6.60;;
18887;SDS011;9576;47.792;9.628;2022-07-23T17:04:58;10.27;;;7.83;;
18887;SDS011;9576;47.792;9.628;2022-07-23T17:08:00;16.15;;;7.50;;
18887;SDS011;9576;47.792;9.628;2022-07-23T17:11:03;10.90;;;6.70;;
18887;SDS011;9576;47.792;9.628;2022-07-23T17:14:05;11.13;;;7.30;;
18887;SDS011;9576;47.792;9.628;2022-07-23T17:17:15;11.45;;;6.93;;
18887;SDS011;9576;47.792;9.628;2022-07-23T17:20:18;9.40;;;7.13;;
18887;SDS011;9576;47.792;9.628;2022-07-23T17:23:20;12.73;;;6.72;;
18887;SDS011;9576;47.792;9.628;2022-07-23T17:26:22;9.80;;;6.38;;
18887;SDS011;9576;47.792;9.628;2022-07-23T17:29:25;16.45;;;7.32;;
18887;SDS011;9576;47.792;9.628;2022-07-23T17:32:29;9.60;;;6.65;;
18887;SDS011;9576;47.792;9.628;2022-07-23T17:35:31;10.47;;;7.40;;
18887;SDS011;9576;47.792;9.628;2022-07-23T17:38:33;18.50;;;8.00;;
18887;SDS011;9576;47.792;9.628;2022-07-23T17:41:35;9.63;;;6.82;;
18887;SDS011;9576;47.792;9.628;2022-07-23T17:44:38;10.48;;;7.10;;
18887;SDS011;9576;47.792;9.628;2022-07-23T17:47:42;10.93;;;7.13;;
18887;SDS011;9576;47.792;9.628;2022-07-23T17:50:46;13.88;;;7.65;;
18887;SDS011;9576;47.792;9.628;2022-07-23T17:53:48;14.52;;;7.90;;
18887;SDS011;9576;47.792;9.628;2022-07-23T17:56:50;11.48;;;7.25;;
18887;SDS011;9576;47.792;9.628;2022-07-23T17:59:53;18.10;;;8.43;;
18887;SDS011;9576;47.792;9.628;2022-07-23T18:02:56;9.93;;;7.50;;
18887;SDS011;9576;47.792;9.628;2022-07-23T18:05:59;12.23;;;8.48;;
18887;SDS011;9576;47.792;9.628;2022-07-23T18:09:02;15.52;;;8.35;;
18887;SDS011;9576;47.792;9.628;2022-07-23T18:12:04;13.93;;;8.40;;
18887;SDS011;9576;47.792;9.628;2022-07-23T18:15:08;12.82;;;7.85;;
18887;SDS011;9576;47.792;9.628;2022-07-23T18:18:12;21.43;;;8.23;;
18887;SDS011;9576;47.792;9.628;2022-07-23T18:21:15;12.10;;;8.35;;
18887;SDS011;9576;47.792;9.628;2022-07-23T18:24:17;13.88;;;8.20;;
18887;SDS011;9576;47.792;9.628;2022-07-23T18:27:19;11.25;;;7.55;;
18887;SDS011;9576;47.792;9.628;2022-07-23T18:30:21;11.90;;;8.25;;
18887;SDS011;9576;47.792;9.628;2022-07-23T18:33:25;16.02;;;8.00;;
18887;SDS011;9576;47.792;9.628;2022-07-23T18:36:27;12.82;;;8.50;;
18887;SDS011;9576;47.792;9.628;2022-07-23T18:39:29;13.30;;;9.05;;